createdAt,value
2022-07-27T00:01:09.646Z,34.35
2022-07-27T00:03:37.929Z,36.10
2022-07-27T00:06:06.035Z,35.78
2022-07-27T00:08:34.470Z,33.60
2022-07-27T00:11:02.790Z,37.38
2022-07-27T00:13:31.726Z,35.53
2022-07-27T00:15:59.433Z,39.58
2022-07-27T00:18:27.165Z,34.42
2022-07-27T00:20:55.316Z,35.65
2022-07-27T00:23:22.998Z,32.25
2022-07-27T00:25:50.743Z,33.75
2022-07-27T00:28:18.551Z,35.28
2022-07-27T00:30:46.269Z,33.08
2022-07-27T00:33:17.334Z,33.22
2022-07-27T00:35:45.935Z,35.63
2022-07-27T00:38:13.810Z,35.78
2022-07-27T00:40:41.716Z,33.20
2022-07-27T00:43:09.443Z,31.35
2022-07-27T00:45:37.369Z,36.35
2022-07-27T00:48:05.983Z,34.17
2022-07-27T00:50:35.151Z,34.38
2022-07-27T00:53:05.018Z,32.65
2022-07-27T00:55:33.775Z,34.00
2022-07-27T00:58:02.541Z,33.88
2022-07-27T01:00:30.623Z,36.60
2022-07-27T01:02:58.371Z,33.28
2022-07-27T01:05:36.351Z,33.20
2022-07-27T01:08:07.875Z,34.65
2022-07-27T01:10:36.124Z,31.88
2022-07-27T01:13:03.935Z,33.67
2022-07-27T01:15:35.182Z,32.92
2022-07-27T01:18:10.415Z,32.42
2022-07-27T01:20:39.581Z,31.90
2022-07-27T01:23:07.330Z,31.77
2022-07-27T01:25:35.079Z,35.42
2022-07-27T01:28:02.773Z,31.25
2022-07-27T01:30:30.786Z,35.00
2022-07-27T01:33:06.858Z,35.72
2022-07-27T01:35:35.661Z,31.40
2022-07-27T01:38:04.307Z,32.85
2022-07-27T01:40:32.166Z,34.67
2022-07-27T01:43:02.810Z,30.67
2022-07-27T01:45:30.595Z,30.15
2022-07-27T01:47:58.388Z,31.45
2022-07-27T01:50:26.184Z,31.75
2022-07-27T01:52:54.024Z,31.27
2022-07-27T01:55:23.283Z,32.65
2022-07-27T01:57:51.979Z,33.50
2022-07-27T02:00:19.670Z,30.15
2022-07-27T02:02:47.704Z,33.13
2022-07-27T02:05:15.738Z,33.30
2022-07-27T02:07:43.655Z,32.28
2022-07-27T02:10:11.419Z,32.63
2022-07-27T02:12:39.789Z,32.20
2022-07-27T02:15:15.561Z,32.05
2022-07-27T02:17:44.779Z,30.67
2022-07-27T02:20:14.965Z,29.52
2022-07-27T02:22:43.457Z,30.27
2022-07-27T02:25:12.991Z,34.30
2022-07-27T02:27:41.932Z,35.20
2022-07-27T02:30:12.316Z,33.90
2022-07-27T02:32:44.259Z,30.30
2022-07-27T02:35:19.700Z,33.05
2022-07-27T02:37:49.110Z,33.67
2022-07-27T02:40:18.032Z,33.40
2022-07-27T02:42:46.997Z,34.10
2022-07-27T02:45:15.918Z,32.95
2022-07-27T02:47:44.677Z,34.80
2022-07-27T02:50:12.764Z,34.72
2022-07-27T02:52:41.928Z,31.60
2022-07-27T02:55:10.817Z,33.72
2022-07-27T02:57:41.148Z,35.13
2022-07-27T03:00:12.872Z,34.75
2022-07-27T03:02:41.139Z,30.98
2022-07-27T03:05:10.791Z,34.95
2022-07-27T03:07:38.854Z,32.28
2022-07-27T03:10:07.201Z,31.88
2022-07-27T03:12:35.035Z,34.70
2022-07-27T03:15:02.815Z,35.78
2022-07-27T03:17:30.485Z,32.88
2022-07-27T03:19:58.298Z,36.05
2022-07-27T03:22:26.017Z,37.28
2022-07-27T03:24:53.667Z,35.38
2022-07-27T03:27:21.322Z,36.50
2022-07-27T03:29:49.110Z,33.70
2022-07-27T03:32:16.825Z,34.28
2022-07-27T03:34:44.526Z,36.00
2022-07-27T03:37:12.525Z,31.33
2022-07-27T03:39:40.181Z,32.92
2022-07-27T03:42:08.034Z,35.38
2022-07-27T03:44:35.749Z,31.23
2022-07-27T03:47:03.411Z,31.55
2022-07-27T03:49:32.185Z,30.08
2022-07-27T03:51:59.914Z,32.30
2022-07-27T03:54:27.737Z,31.65
2022-07-27T03:56:55.487Z,29.88
2022-07-27T03:59:23.228Z,31.98
2022-07-27T04:01:51.011Z,34.65
2022-07-27T04:04:18.712Z,33.40
2022-07-27T04:06:46.389Z,33.20
2022-07-27T04:09:14.542Z,37.05
2022-07-27T04:11:50.966Z,33.95
2022-07-27T04:14:19.810Z,34.53
2022-07-27T04:16:52.131Z,34.95
2022-07-27T04:19:19.993Z,34.92
2022-07-27T04:21:48.051Z,34.15
2022-07-27T04:24:15.909Z,33.45
2022-07-27T04:26:43.684Z,39.47
2022-07-27T04:29:11.594Z,36.58
2022-07-27T04:31:39.569Z,37.00
2022-07-27T04:34:07.211Z,40.13
2022-07-27T04:36:42.558Z,36.10
2022-07-27T04:39:10.499Z,36.53
2022-07-27T04:41:38.555Z,39.72
2022-07-27T04:44:06.257Z,35.40
2022-07-27T04:46:34.139Z,34.72
2022-07-27T04:49:01.977Z,33.50
2022-07-27T04:51:34.314Z,36.00
2022-07-27T04:54:03.360Z,38.08
2022-07-27T04:56:31.014Z,37.67
2022-07-27T04:58:58.760Z,37.80
2022-07-27T05:01:30.378Z,39.47
2022-07-27T05:04:07.343Z,36.17
2022-07-27T05:06:35.152Z,39.35
2022-07-27T05:09:03.877Z,37.88
2022-07-27T05:11:31.548Z,36.25
2022-07-27T05:13:59.340Z,39.45
2022-07-27T05:16:39.434Z,37.35
2022-07-27T05:19:40.874Z,30.85
2022-07-27T05:22:13.748Z,29.25
2022-07-27T05:24:42.475Z,35.00
2022-07-27T05:27:10.200Z,35.15
2022-07-27T05:29:38.312Z,36.53
2022-07-27T05:32:06.720Z,35.10
2022-07-27T05:34:34.486Z,33.20
2022-07-27T05:37:05.054Z,35.15
2022-07-27T05:39:32.966Z,30.80
2022-07-27T05:42:01.893Z,31.95
2022-07-27T05:44:36.652Z,28.50
2022-07-27T05:49:34.478Z,22.00
2022-07-27T05:52:02.703Z,26.00
2022-07-27T05:54:37.166Z,25.13
2022-07-27T05:57:08.620Z,21.73
2022-07-27T05:59:41.142Z,22.70
2022-07-27T06:02:12.615Z,25.30
2022-07-27T06:04:49.037Z,24.17
2022-07-27T06:07:37.915Z,27.00
2022-07-27T06:10:11.669Z,27.42
2022-07-27T06:12:41.455Z,25.08
2022-07-27T06:15:17.386Z,29.42
2022-07-27T06:18:15.306Z,32.30
2022-07-27T06:20:47.888Z,25.83
2022-07-27T06:23:18.604Z,25.02
2022-07-27T06:25:46.889Z,22.10
2022-07-27T06:28:19.531Z,20.67
2022-07-27T06:31:13.670Z,24.52
2022-07-27T06:34:11.730Z,23.92
2022-07-27T06:36:46.291Z,25.73
2022-07-27T06:39:15.265Z,26.20
2022-07-27T06:41:46.747Z,25.17
2022-07-27T06:44:14.662Z,26.63
2022-07-27T06:46:42.986Z,28.05
2022-07-27T06:49:11.201Z,32.97
2022-07-27T06:51:39.667Z,30.95
2022-07-27T06:54:07.371Z,30.13
2022-07-27T06:56:38.267Z,33.13
2022-07-27T06:59:06.818Z,27.30
2022-07-27T07:01:34.544Z,35.78
2022-07-27T07:04:02.877Z,35.13
2022-07-27T07:06:30.696Z,34.95
2022-07-27T07:08:58.538Z,37.58
2022-07-27T07:11:26.505Z,30.83
2022-07-27T07:13:54.226Z,29.58
2022-07-27T07:16:25.697Z,28.60
2022-07-27T07:18:53.512Z,33.28
2022-07-27T07:21:22.157Z,35.92
2022-07-27T07:23:50.271Z,33.88
2022-07-27T07:26:18.228Z,34.85
2022-07-27T07:28:48.428Z,29.98
2022-07-27T07:31:16.702Z,32.45
2022-07-27T07:33:44.546Z,36.00
2022-07-27T07:36:15.105Z,43.03
2022-07-27T07:38:44.638Z,39.45
2022-07-27T07:41:13.158Z,31.83
2022-07-27T07:43:42.364Z,33.80
2022-07-27T07:46:10.305Z,34.78
2022-07-27T07:48:39.665Z,36.67
2022-07-27T07:51:07.524Z,34.92
2022-07-27T07:53:39.303Z,32.20
2022-07-27T07:56:14.263Z,34.00
2022-07-27T07:58:45.049Z,32.08
2022-07-27T08:01:12.779Z,37.45
2022-07-27T08:03:40.487Z,36.53
2022-07-27T08:06:08.495Z,34.80
2022-07-27T08:08:36.195Z,45.08
2022-07-27T08:11:04.083Z,37.17
2022-07-27T08:13:31.967Z,42.17
2022-07-27T08:15:59.859Z,34.88
2022-07-27T08:18:27.603Z,38.45
2022-07-27T08:20:55.297Z,34.10
2022-07-27T08:23:24.966Z,35.58
2022-07-27T08:25:53.325Z,37.65
2022-07-27T08:28:21.324Z,39.80
2022-07-27T08:30:52.424Z,41.72
2022-07-27T08:33:21.074Z,42.47
2022-07-27T08:35:48.861Z,50.47
2022-07-27T08:38:16.603Z,46.83
2022-07-27T08:40:46.350Z,45.42
2022-07-27T08:43:21.955Z,43.17
2022-07-27T08:46:01.541Z,40.63
2022-07-27T08:48:31.800Z,36.10
2022-07-27T08:51:02.095Z,42.80
2022-07-27T08:53:35.889Z,41.85
2022-07-27T08:56:20.337Z,41.08
2022-07-27T08:58:48.209Z,47.67
2022-07-27T09:01:16.163Z,48.35
2022-07-27T09:03:44.075Z,45.30
2022-07-27T09:06:12.031Z,48.15
2022-07-27T09:08:41.959Z,50.60
2022-07-27T09:11:15.627Z,44.33
2022-07-27T09:13:43.420Z,44.83
2022-07-27T09:16:20.379Z,51.38
2022-07-27T09:18:58.188Z,45.55
2022-07-27T09:21:26.671Z,46.70
2022-07-27T09:23:57.443Z,49.03
2022-07-27T09:26:33.388Z,46.47
2022-07-27T09:29:07.909Z,46.53
2022-07-27T09:31:51.512Z,44.28
2022-07-27T09:34:31.234Z,45.45
2022-07-27T09:37:00.459Z,48.33
2022-07-27T09:39:29.129Z,50.78
2022-07-27T09:42:03.331Z,50.25
2022-07-27T09:44:43.732Z,50.38
2022-07-27T09:47:28.173Z,45.75
2022-07-27T09:50:19.795Z,43.17
2022-07-27T09:52:47.714Z,41.78
2022-07-27T09:55:21.028Z,46.13
2022-07-27T09:57:56.793Z,51.20
2022-07-27T10:00:25.883Z,47.72
2022-07-27T10:02:55.153Z,45.33
2022-07-27T10:05:23.444Z,40.08
2022-07-27T10:07:54.109Z,42.30
2022-07-27T10:10:23.249Z,43.33
2022-07-27T10:12:55.139Z,39.45
2022-07-27T10:15:24.693Z,39.10
2022-07-27T10:18:01.813Z,40.88
2022-07-27T10:20:31.935Z,40.95
2022-07-27T10:23:00.290Z,42.35
2022-07-27T10:25:37.290Z,42.33
2022-07-27T10:28:10.440Z,41.33
2022-07-27T10:30:38.848Z,43.25
2022-07-27T10:33:38.049Z,46.63
2022-07-27T10:36:16.839Z,45.15
2022-07-27T10:38:52.897Z,42.85
2022-07-27T10:41:22.366Z,43.40
2022-07-27T10:43:51.471Z,40.17
2022-07-27T10:46:22.500Z,41.30
2022-07-27T10:48:50.370Z,45.60
2022-07-27T10:51:35.230Z,39.13
2022-07-27T10:54:22.240Z,42.35
2022-07-27T10:56:52.098Z,38.97
2022-07-27T11:00:10.225Z,39.60
2022-07-27T11:02:42.801Z,33.55
2022-07-27T11:08:35.333Z,36.08
2022-07-27T11:10:51.182Z,32.33
2022-07-27T11:13:24.028Z,35.70
2022-07-27T11:16:15.630Z,36.58
2022-07-27T11:19:02.555Z,40.03
2022-07-27T11:21:39.318Z,35.63
2022-07-27T11:24:14.928Z,31.65
2022-07-27T11:26:45.812Z,32.88
2022-07-27T11:29:16.005Z,40.83
2022-07-27T11:31:56.383Z,38.30
2022-07-27T11:34:36.318Z,40.67
2022-07-27T11:37:13.821Z,42.63
2022-07-27T11:39:59.660Z,38.38
2022-07-27T11:42:40.658Z,38.47
2022-07-27T11:45:09.217Z,39.85
2022-07-27T11:47:37.294Z,50.67
2022-07-27T11:50:11.594Z,42.08
2022-07-27T11:52:39.534Z,40.33
2022-07-27T11:55:08.254Z,46.97
2022-07-27T11:57:36.157Z,44.08
2022-07-27T12:00:06.585Z,41.03
2022-07-27T12:02:49.133Z,42.08
2022-07-27T12:05:17.092Z,35.47
2022-07-27T12:07:45.052Z,39.42
2022-07-27T12:10:14.534Z,40.63
2022-07-27T12:12:49.445Z,37.58
2022-07-27T12:15:45.969Z,37.20
2022-07-27T12:18:07.855Z,70.57
2022-07-27T12:20:37.432Z,36.45
2022-07-27T12:23:08.012Z,33.95
2022-07-27T12:25:36.588Z,30.67
2022-07-27T12:28:07.649Z,34.80
2022-07-27T12:30:37.667Z,30.95
2022-07-27T12:33:39.399Z,30.45
2022-07-27T12:36:09.742Z,31.75
2022-07-27T12:38:46.714Z,35.63
2022-07-27T12:41:32.630Z,39.28
2022-07-27T12:44:12.181Z,37.20
2022-07-27T12:46:59.475Z,35.42
2022-07-27T12:49:29.552Z,28.75
2022-07-27T12:52:08.644Z,31.58
2022-07-27T12:54:36.892Z,34.25
2022-07-27T12:57:04.756Z,40.70
2022-07-27T12:59:34.933Z,46.95
2022-07-27T13:02:02.723Z,50.70
2022-07-27T13:04:30.556Z,50.40
2022-07-27T13:06:58.374Z,51.65
2022-07-27T13:09:26.182Z,53.28
2022-07-27T13:12:14.495Z,55.42
2022-07-27T13:14:43.385Z,51.30
2022-07-27T13:17:11.515Z,47.33
2022-07-27T13:19:39.212Z,48.10
2022-07-27T13:22:07.316Z,55.30
2022-07-27T13:24:35.061Z,34.33
2022-07-27T13:27:03.058Z,31.92
2022-07-27T13:29:30.810Z,28.00
2022-07-27T13:31:58.541Z,20.17
2022-07-27T13:34:26.457Z,21.48
2022-07-27T13:36:54.692Z,19.48
2022-07-27T13:39:22.571Z,19.80
2022-07-27T13:41:54.975Z,18.27
2022-07-27T13:44:57.479Z,17.75
2022-07-27T13:47:12.059Z,18.80
2022-07-27T13:49:39.771Z,18.95
2022-07-27T13:52:09.037Z,24.13
2022-07-27T13:54:36.712Z,28.27
2022-07-27T13:57:04.470Z,35.58
2022-07-27T13:59:32.221Z,45.88
2022-07-27T14:01:59.969Z,50.30
2022-07-27T14:04:29.145Z,56.90
2022-07-27T14:06:58.945Z,64.85
2022-07-27T14:09:46.557Z,55.42
2022-07-27T14:12:15.095Z,50.70
2022-07-27T14:14:42.846Z,57.10
2022-07-27T14:17:10.760Z,66.32
2022-07-27T14:19:38.457Z,62.28
2022-07-27T14:22:10.663Z,56.78
2022-07-27T14:24:39.050Z,53.05
2022-07-27T14:27:07.294Z,60.70
2022-07-27T14:29:36.295Z,60.03
2022-07-27T14:32:04.272Z,63.67
2022-07-27T14:34:32.086Z,61.80
2022-07-27T14:36:59.894Z,58.30
2022-07-27T14:39:27.599Z,70.35
2022-07-27T14:41:55.260Z,46.38
2022-07-27T14:44:23.301Z,42.85
2022-07-27T14:46:51.140Z,52.88
2022-07-27T14:49:24.985Z,39.92
2022-07-27T14:51:54.059Z,34.55
2022-07-27T14:54:21.788Z,35.60
2022-07-27T14:56:49.674Z,32.33
2022-07-27T14:59:19.812Z,32.95
2022-07-27T15:01:49.931Z,31.88
2022-07-27T15:04:18.418Z,33.00
2022-07-27T15:06:59.888Z,30.17
2022-07-27T15:09:33.251Z,29.90
2022-07-27T15:12:01.332Z,26.90
2022-07-27T15:14:29.415Z,29.23
2022-07-27T15:16:57.578Z,31.70
2022-07-27T15:19:25.640Z,31.48
2022-07-27T15:21:53.645Z,29.38
2022-07-27T15:24:21.620Z,29.00
2022-07-27T15:26:49.479Z,23.35
2022-07-27T15:29:17.253Z,20.08
2022-07-27T15:31:45.135Z,18.77
2022-07-27T15:34:15.621Z,17.65
2022-07-27T15:36:47.371Z,16.45
2022-07-27T15:39:21.063Z,17.65
2022-07-27T15:41:49.562Z,19.77
2022-07-27T15:44:21.994Z,18.00
2022-07-27T15:46:49.925Z,20.05
2022-07-27T15:49:18.610Z,17.98
2022-07-27T15:51:48.079Z,18.63
2022-07-27T15:54:15.901Z,18.35
2022-07-27T15:56:43.654Z,15.60
2022-07-27T15:59:11.486Z,17.45
2022-07-27T16:01:39.698Z,17.30
2022-07-27T16:04:07.970Z,18.08
2022-07-27T16:06:39.405Z,18.38
2022-07-27T16:09:09.632Z,16.85
2022-07-27T16:11:38.074Z,18.27
2022-07-27T16:14:06.230Z,17.80
2022-07-27T16:16:34.263Z,19.15
2022-07-27T16:19:12.526Z,19.02
2022-07-27T16:21:54.052Z,18.45
2022-07-27T16:24:26.010Z,17.02
2022-07-27T16:26:54.065Z,19.00
2022-07-27T16:29:22.160Z,17.98
2022-07-27T16:31:58.041Z,20.58
2022-07-27T16:34:31.425Z,23.67
2022-07-27T16:37:00.583Z,22.98
2022-07-27T16:39:28.650Z,24.60
2022-07-27T16:41:56.409Z,24.55
2022-07-27T16:44:24.232Z,26.23
2022-07-27T16:46:52.610Z,30.48
2022-07-27T16:49:21.198Z,35.30
2022-07-27T16:52:01.075Z,33.70
2022-07-27T16:54:28.827Z,27.00
2022-07-27T16:56:57.525Z,31.33
2022-07-27T16:59:25.398Z,38.55
2022-07-27T17:01:53.177Z,37.78
2022-07-27T17:04:24.081Z,37.92
2022-07-27T17:06:52.152Z,37.85
2022-07-27T17:09:19.779Z,34.65
2022-07-27T17:11:47.818Z,35.42
2022-07-27T17:14:16.738Z,37.50
2022-07-27T17:16:51.677Z,41.63
2022-07-27T17:19:49.835Z,38.70
2022-07-27T17:22:38.028Z,35.13
2022-07-27T17:25:06.476Z,35.95
2022-07-27T17:27:36.662Z,44.72
2022-07-27T17:30:07.256Z,47.72
2022-07-27T17:32:38.168Z,45.25
2022-07-27T17:35:07.317Z,56.33
2022-07-27T17:38:04.514Z,66.05
2022-07-27T17:40:28.947Z,53.78
2022-07-27T17:42:57.409Z,58.20
2022-07-27T17:45:25.209Z,50.72
2022-07-27T17:47:53.006Z,58.22
2022-07-27T17:50:20.931Z,57.05
2022-07-27T17:53:04.985Z,59.35
2022-07-27T17:55:41.113Z,47.00
2022-07-27T17:58:11.256Z,49.30
2022-07-27T18:00:40.462Z,57.47
2022-07-27T18:03:11.349Z,54.10
2022-07-27T18:05:40.280Z,56.65
2022-07-27T18:08:08.161Z,59.22
2022-07-27T18:10:38.678Z,60.72
2022-07-27T18:13:14.130Z,58.60
2022-07-27T18:15:47.933Z,57.85
2022-07-27T18:19:17.588Z,54.85
2022-07-27T18:21:22.656Z,53.50
2022-07-27T18:23:50.571Z,52.67
2022-07-27T18:26:22.118Z,50.03
2022-07-27T18:28:52.675Z,51.25
2022-07-27T18:31:24.287Z,53.60
2022-07-27T18:33:55.472Z,48.33
2022-07-27T18:36:32.270Z,50.53
2022-07-27T18:39:01.163Z,45.63
2022-07-27T18:41:28.955Z,44.08
2022-07-27T18:43:57.864Z,39.45
2022-07-27T18:46:25.751Z,43.28
2022-07-27T18:48:53.722Z,47.97
2022-07-27T18:51:21.889Z,37.35
2022-07-27T18:53:49.652Z,41.88
2022-07-27T18:56:19.211Z,43.00
2022-07-27T18:58:46.949Z,37.30
2022-07-27T19:01:16.593Z,42.95
2022-07-27T19:03:44.573Z,40.10
2022-07-27T19:06:12.606Z,40.42
2022-07-27T19:08:46.664Z,44.05
2022-07-27T19:11:17.512Z,45.80
2022-07-27T19:13:47.830Z,40.10
2022-07-27T19:16:15.684Z,44.50
2022-07-27T19:18:48.058Z,35.20
2022-07-27T19:21:17.048Z,38.85
2022-07-27T19:23:45.347Z,35.55
2022-07-27T19:26:13.530Z,41.13
2022-07-27T19:28:44.249Z,34.85
2022-07-27T19:31:22.933Z,38.13
2022-07-27T19:33:53.158Z,39.75
2022-07-27T19:36:23.231Z,38.55
2022-07-27T19:38:51.717Z,36.60
2022-07-27T19:41:19.777Z,41.63
2022-07-27T19:43:47.788Z,38.72
2022-07-27T19:46:15.934Z,39.33
2022-07-27T19:48:43.871Z,36.47
2022-07-27T19:51:11.654Z,37.40
2022-07-27T19:53:41.228Z,35.20
2022-07-27T19:56:12.230Z,33.13
2022-07-27T19:58:43.115Z,30.50
2022-07-27T20:01:11.923Z,32.60
2022-07-27T20:03:52.328Z,36.15
2022-07-27T20:06:24.480Z,31.60
2022-07-27T20:08:59.747Z,35.35
2022-07-27T20:11:30.889Z,33.08
2022-07-27T20:13:59.767Z,31.92
2022-07-27T20:16:29.904Z,30.02
2022-07-27T20:18:58.357Z,32.22
2022-07-27T20:21:27.109Z,36.15
2022-07-27T20:23:57.520Z,35.95
2022-07-27T20:26:25.248Z,32.33
2022-07-27T20:28:55.927Z,30.70
2022-07-27T20:31:23.961Z,29.48
2022-07-27T20:33:52.944Z,28.88
2022-07-27T20:36:21.465Z,32.97
2022-07-27T20:38:49.220Z,29.40
2022-07-27T20:41:17.002Z,27.88
2022-07-27T20:43:44.810Z,28.08
2022-07-27T20:46:13.090Z,30.05
2022-07-27T20:48:43.600Z,27.23
2022-07-27T20:51:11.572Z,28.55
2022-07-27T20:53:42.000Z,31.40
2022-07-27T20:56:10.845Z,30.33
2022-07-27T20:58:41.232Z,28.95
2022-07-27T21:01:09.239Z,28.85
2022-07-27T21:03:38.145Z,31.65
2022-07-27T21:06:05.996Z,31.42
2022-07-27T21:08:38.805Z,30.85
2022-07-27T21:11:09.395Z,32.42
2022-07-27T21:13:39.639Z,30.50
2022-07-27T21:16:07.565Z,30.83
2022-07-27T21:18:35.821Z,33.30
2022-07-27T21:21:03.624Z,30.83
2022-07-27T21:23:52.881Z,38.17
2022-07-27T21:26:20.758Z,31.88
2022-07-27T21:28:50.280Z,33.05
2022-07-27T21:31:18.441Z,39.50
2022-07-27T21:33:48.041Z,39.95
2022-07-27T21:36:16.254Z,36.63
2022-07-27T21:38:43.975Z,38.75
2022-07-27T21:41:11.603Z,32.65
2022-07-27T21:43:39.726Z,30.60
2022-07-27T21:46:07.543Z,28.48
2022-07-27T21:48:35.344Z,27.77
2022-07-27T21:51:03.224Z,24.88
2022-07-27T21:53:30.966Z,28.25
2022-07-27T21:55:59.295Z,28.65
2022-07-27T21:58:27.060Z,27.88
2022-07-27T22:00:55.282Z,29.95
2022-07-27T22:03:22.982Z,30.05
2022-07-27T22:05:50.715Z,29.45
2022-07-27T22:08:18.333Z,26.08
2022-07-27T22:10:46.034Z,28.83
2022-07-27T22:13:13.759Z,28.00
2022-07-27T22:15:41.611Z,29.83
2022-07-27T22:18:10.330Z,27.15
2022-07-27T22:20:38.014Z,28.02
2022-07-27T22:23:05.763Z,27.05
2022-07-27T22:25:33.845Z,24.65
2022-07-27T22:28:01.794Z,25.02
2022-07-27T22:30:29.699Z,21.80
2022-07-27T22:32:57.503Z,32.33
2022-07-27T22:35:25.607Z,25.02
2022-07-27T22:37:53.625Z,20.98
2022-07-27T22:40:22.468Z,25.90
2022-07-27T22:42:50.163Z,23.65
2022-07-27T22:45:18.452Z,24.17
2022-07-27T22:47:46.659Z,26.15
2022-07-27T22:50:18.188Z,25.95
2022-07-27T22:52:47.367Z,27.75
2022-07-27T22:55:15.455Z,23.42
2022-07-27T22:57:43.279Z,25.20
2022-07-27T23:00:11.691Z,26.00
2022-07-27T23:02:39.400Z,25.48
2022-07-27T23:05:07.622Z,27.75
2022-07-27T23:07:35.344Z,30.50
2022-07-27T23:10:03.787Z,29.90
2022-07-27T23:12:31.690Z,28.70
2022-07-27T23:14:59.438Z,32.40
2022-07-27T23:17:27.193Z,37.65
2022-07-27T23:19:54.917Z,35.00
2022-07-27T23:22:23.848Z,35.97
2022-07-27T23:24:51.583Z,40.83
2022-07-27T23:27:19.538Z,39.15
2022-07-27T23:29:47.309Z,41.28
2022-07-27T23:32:15.094Z,39.00
2022-07-27T23:34:42.752Z,38.97
2022-07-27T23:37:11.698Z,38.35
2022-07-27T23:39:39.385Z,37.88
2022-07-27T23:42:07.285Z,31.83
2022-07-27T23:44:34.924Z,31.50
2022-07-27T23:47:02.687Z,32.20
2022-07-27T23:49:30.691Z,30.75
2022-07-27T23:51:59.579Z,32.72
2022-07-27T23:54:27.420Z,33.58
2022-07-27T23:56:55.097Z,34.22
2022-07-27T23:59:23.297Z,30.00
